Esquina — 2DOU6 — position and weather

sailwx.info

Track history (hours):
 
Tides and Currents Weather Stations Pressure Air Temp Water Temp Dewpoint Dewpoint Depression Visibility Wind Speed Wind Dir Waves Ship Positions

Esquina

Last reported at 2016-May-30 11:21 UTC. Time now 2016-May-31 02:07 UTC.
Position N 47°43' W 003°21'.

Type: Other ship. MMSI: 235080801.

Date/timePositionNaut miles runAvg speedWind from/ knotsBaromVisibWave heightAir tempDewpointWater temp
2016-May-30 11:21N 47°43' W 003°21'911.4
2016-May-30 10:33N 47°36' W 003°12'3 2.8
2016-May-30 09:34N 47°35' W 003°16'0 0.3
2016-May-30 08:34N 47°35' W 003°16'0 0.3
2016-May-30 07:34N 47°34' W 003°16'3 3.0
2016-May-30 06:33N 47°35' W 003°12'4 3.6
2016-May-30 05:33N 47°37' W 003°15'8 7.9
2016-May-30 04:33N 47°44' W 003°21'  
2016-May-26 16:32N 47°43' W 003°22'2 1.6
2016-May-26 15:32N 47°45' W 003°21'6 6.5
2016-May-26 14:33N 47°39' W 003°18'6 6.0
2016-May-26 13:33N 47°36' W 003°10'3 3.1
2016-May-26 12:30N 47°35' W 003°15'2 1.5
2016-May-26 11:24N 47°34' W 003°12'2 1.9
2016-May-26 10:29N 47°36' W 003°10'1112.0
2016-May-26 09:33N 47°44' W 003°22'1 0.1
2016-May-25 15:28N 47°43' W 003°21'1010.4
2016-May-25 14:29N 47°36' W 003°10'4 4.7
2016-May-25 13:33N 47°35' W 003°17'1 0.6
2016-May-25 12:33N 47°35' W 003°17'3 3.1
2016-May-25 11:33N 47°34' W 003°12'2 1.7
2016-May-25 10:30N 47°36' W 003°10'5 4.8
2016-May-25 09:33N 47°36' W 003°17'8 8.4
2016-May-25 08:33N 47°44' W 003°21'1 1.3
2016-May-25 07:33N 47°43' W 003°21'  
Track history (hours):
 
Tides and Currents Weather Stations Pressure Air Temp Water Temp Dewpoint Dewpoint Depression Visibility Wind Speed Wind Dir Waves Ship Positions

Esquina

Last reported at 2016-May-30 11:21 UTC. Time now 2016-May-31 02:07 UTC.
Position N 47°43' W 003°21'.

Type: Other ship. MMSI: 235080801.

Date/timePositionNaut miles runAvg speedWind from/ knotsBaromVisibWave heightAir tempDewpointWater temp
2016-May-30 11:21N 47°43' W 003°21'911.4
2016-May-30 10:33N 47°36' W 003°12'3 2.8
2016-May-30 09:34N 47°35' W 003°16'0 0.3
2016-May-30 08:34N 47°35' W 003°16'0 0.3
2016-May-30 07:34N 47°34' W 003°16'3 3.0
2016-May-30 06:33N 47°35' W 003°12'4 3.6
2016-May-30 05:33N 47°37' W 003°15'8 7.9
2016-May-30 04:33N 47°44' W 003°21'  
2016-May-26 16:32N 47°43' W 003°22'2 1.6
2016-May-26 15:32N 47°45' W 003°21'6 6.5
2016-May-26 14:33N 47°39' W 003°18'6 6.0
2016-May-26 13:33N 47°36' W 003°10'3 3.1
2016-May-26 12:30N 47°35' W 003°15'2 1.5
2016-May-26 11:24N 47°34' W 003°12'2 1.9
2016-May-26 10:29N 47°36' W 003°10'1112.0
2016-May-26 09:33N 47°44' W 003°22'1 0.1
2016-May-25 15:28N 47°43' W 003°21'1010.4
2016-May-25 14:29N 47°36' W 003°10'4 4.7
2016-May-25 13:33N 47°35' W 003°17'1 0.6
2016-May-25 12:33N 47°35' W 003°17'3 3.1
2016-May-25 11:33N 47°34' W 003°12'2 1.7
2016-May-25 10:30N 47°36' W 003°10'5 4.8
2016-May-25 09:33N 47°36' W 003°17'8 8.4
2016-May-25 08:33N 47°44' W 003°21'1 1.3
2016-May-25 07:33N 47°43' W 003°21'  

Dump ship's entire track history